Time;durP1;ratioP1;P1;durP2;ratioP2;P2;SDS_P1;SDS_P2;PMS_P1;PMS_P2;Temp;Humidity;BMP_temperature;BMP_pressure;BME280_temperature;BME280_humidity;BME280_pressure;Samples;Min_cycle;Max_cycle;Signal;HPM_P1;HPM_P2
2023/10/07 00:02:16;;;;;;;6.03;3.10;;;15.20;99.90;;;;;;5031844;28;21167;-79
2023/10/07 00:04:44;;;;;;;5.40;2.93;;;15.20;99.90;;;;;;5032242;28;20580;-78
2023/10/07 00:07:11;;;;;;;7.80;2.77;;;15.20;99.90;;;;;;5014106;28;20620;-78
2023/10/07 00:09:43;;;;;;;5.90;3.07;;;15.20;99.90;;;;;;5014422;28;20580;-78
2023/10/07 00:12:14;;;;;;;5.67;3.63;;;15.20;99.90;;;;;;5031951;28;20588;-78
2023/10/07 00:14:40;;;;;;;7.10;3.60;;;15.20;99.90;;;;;;5032020;28;21205;-78
2023/10/07 00:17:17;;;;;;;8.27;3.53;;;15.10;99.90;;;;;;5030175;28;20711;-78
2023/10/07 00:19:46;;;;;;;5.17;3.00;;;15.10;99.90;;;;;;5031963;28;20730;-78
2023/10/07 00:22:19;;;;;;;4.47;2.37;;;15.10;99.90;;;;;;5031172;28;20603;-78
2023/10/07 00:24:46;;;;;;;7.63;3.07;;;15.10;99.90;;;;;;5014302;28;20597;-78
2023/10/07 00:27:29;;;;;;;4.87;3.10;;;15.10;99.90;;;;;;5014787;28;20616;-78
2023/10/07 00:29:59;;;;;;;5.50;2.87;;;15.10;99.90;;;;;;4982468;28;20612;-78
2023/10/07 00:32:28;;;;;;;5.03;2.80;;;15.10;99.90;;;;;;5014404;28;20592;-78
2023/10/07 00:34:55;;;;;;;5.47;3.03;;;15.10;99.90;;;;;;5032808;28;20615;-78
2023/10/07 00:37:23;;;;;;;4.83;3.10;;;15.10;99.90;;;;;;5013639;28;20647;-79
2023/10/07 00:39:51;;;;;;;6.00;2.40;;;15.10;99.90;;;;;;5013859;28;20611;-78
2023/10/07 00:42:19;;;;;;;4.73;2.20;;;15.10;99.90;;;;;;5031429;28;20587;-79
2023/10/07 00:44:47;;;;;;;5.27;1.90;;;15.10;99.90;;;;;;5015456;28;20601;-78
2023/10/07 00:47:14;;;;;;;5.17;2.30;;;15.10;99.90;;;;;;4996959;28;20711;-78
2023/10/07 00:52:28;;;;;;;4.53;2.60;;;15.10;99.90;;;;;;5013491;28;20596;-79
2023/10/07 01:02:50;;;;;;;8.57;2.80;;;15.20;99.90;;;;;;5013665;28;20645;-78
2023/10/07 01:05:22;;;;;;;5.87;2.90;;;15.20;99.90;;;;;;5029093;28;20603;-78
2023/10/07 01:07:53;;;;;;;5.17;3.00;;;15.20;99.90;;;;;;4997192;28;20592;-78
2023/10/07 01:10:26;;;;;;;7.60;2.17;;;15.30;99.90;;;;;;5013248;28;21000;-78
2023/10/07 01:12:55;;;;;;;4.30;2.50;;;15.30;99.90;;;;;;5013623;28;21005;-77
2023/10/07 01:15:24;;;;;;;6.60;2.37;;;15.40;99.90;;;;;;5047321;23;21866;-75
2023/10/07 01:17:56;;;;;;;5.47;2.67;;;15.40;99.90;;;;;;5012708;28;20690;-75
2023/10/07 01:20:34;;;;;;;8.43;2.43;;;15.40;99.90;;;;;;5029707;28;20599;-76
2023/10/07 01:23:03;;;;;;;5.43;2.00;;;15.50;99.90;;;;;;5029825;28;20592;-76
2023/10/07 01:25:30;;;;;;;12.00;2.57;;;15.50;99.90;;;;;;5010644;28;20644;-77
2023/10/07 01:28:00;;;;;;;4.03;2.20;;;15.50;99.90;;;;;;5019929;28;21068;-76
2023/10/07 01:30:34;;;;;;;4.60;2.23;;;15.60;99.90;;;;;;5030810;28;20671;-76
2023/10/07 01:36:00;;;;;;;5.30;1.90;;;15.60;99.90;;;;;;5032346;28;20707;-76
2023/10/07 01:38:28;;;;;;;4.70;2.13;;;15.60;99.90;;;;;;5016643;28;21179;-76
2023/10/07 01:41:04;;;;;;;9.83;2.50;;;15.70;99.90;;;;;;5033579;28;20584;-76
2023/10/07 01:43:30;;;;;;;4.43;2.23;;;15.70;99.90;;;;;;5033346;28;20646;-76
2023/10/07 01:45:56;;;;;;;5.50;2.60;;;15.70;99.90;;;;;;5033441;28;20612;-76
2023/10/07 01:48:21;;;;;;;3.53;1.83;;;15.70;99.90;;;;;;5033051;28;20680;-76
2023/10/07 01:50:49;;;;;;;4.33;2.17;;;15.70;99.90;;;;;;5033514;28;20658;-76
2023/10/07 01:53:15;;;;;;;7.23;2.50;;;15.80;99.90;;;;;;5024886;28;20577;-76
2023/10/07 01:55:45;;;;;;;4.17;2.03;;;15.80;99.90;;;;;;5025171;28;20615;-76
2023/10/07 01:58:13;;;;;;;3.90;2.37;;;15.80;99.90;;;;;;5000359;28;20177;-76
2023/10/07 02:00:46;;;;;;;10.37;3.20;;;15.80;99.90;;;;;;5013438;28;20581;-76
2023/10/07 02:03:29;;;;;;;5.90;2.40;;;15.80;99.90;;;;;;4998366;28;20679;-76
2023/10/07 02:05:55;;;;;;;5.17;2.30;;;15.80;99.90;;;;;;5016654;28;20617;-73
2023/10/07 02:08:23;;;;;;;7.07;2.50;;;15.80;99.90;;;;;;4997282;28;20657;-73
2023/10/07 02:10:57;;;;;;;4.47;2.63;;;15.80;99.90;;;;;;5013616;28;20585;-74
2023/10/07 02:13:27;;;;;;;6.60;2.73;;;15.80;99.90;;;;;;4997151;28;20624;-74
2023/10/07 02:15:54;;;;;;;5.23;2.20;;;15.80;99.90;;;;;;4996798;28;20691;-74
2023/10/07 02:18:22;;;;;;;4.10;2.30;;;15.70;99.90;;;;;;4996877;28;20595;-74
2023/10/07 02:20:50;;;;;;;7.57;3.07;;;15.70;99.90;;;;;;5013429;28;20570;-74
2023/10/07 02:23:37;;;;;;;8.27;3.17;;;15.70;99.90;;;;;;5014633;28;20959;-75
2023/10/07 02:26:06;;;;;;;5.33;2.70;;;15.60;99.90;;;;;;5003938;28;20654;-73
2023/10/07 02:28:34;;;;;;;4.40;2.80;;;15.60;99.90;;;;;;5022083;28;20593;-73
2023/10/07 02:31:07;;;;;;;3.50;2.50;;;15.60;99.90;;;;;;5014441;28;20611;-73
2023/10/07 02:33:41;;;;;;;3.57;2.40;;;15.60;99.90;;;;;;5013012;28;20649;-74
2023/10/07 02:36:31;;;;;;;4.60;2.37;;;15.60;99.90;;;;;;5014432;28;20600;-73
2023/10/07 02:42:03;;;;;;;8.97;2.43;;;15.60;99.90;;;;;;4938236;29;20587;-73
2023/10/07 02:44:29;;;;;;;5.43;2.43;;;15.60;99.90;;;;;;4939874;29;20643;-76
2023/10/07 02:46:56;;;;;;;5.27;2.70;;;15.60;99.90;;;;;;4972201;28;20661;-75
2023/10/07 02:49:22;;;;;;;5.10;2.67;;;15.50;99.90;;;;;;4993435;28;20724;-75
2023/10/07 02:51:58;;;;;;;5.40;2.80;;;15.50;99.90;;;;;;5009309;28;20584;-74
2023/10/07 02:54:32;;;;;;;6.43;2.30;;;15.50;99.90;;;;;;5015937;28;20627;-74
2023/10/07 02:59:36;;;;;;;4.87;2.37;;;15.50;99.90;;;;;;5032475;28;20607;-75
2023/10/07 03:02:12;;;;;;;5.10;2.50;;;15.50;99.90;;;;;;5032537;28;21113;-74
2023/10/07 03:05:13;;;;;;;5.40;3.00;;;15.50;99.90;;;;;;5032604;28;20943;-73
2023/10/07 03:07:41;;;;;;;4.77;2.23;;;15.50;99.90;;;;;;5020878;28;20582;-76
2023/10/07 03:10:36;;;;;;;4.67;2.50;;;15.60;99.90;;;;;;4980033;28;20627;-74
2023/10/07 03:13:02;;;;;;;4.80;2.33;;;15.50;99.90;;;;;;5012401;28;20641;-74
2023/10/07 03:18:03;;;;;;;4.10;2.17;;;15.60;99.90;;;;;;4996138;28;20577;-74
2023/10/07 03:20:31;;;;;;;5.40;2.60;;;15.50;99.90;;;;;;5015581;28;20589;-74
2023/10/07 03:23:17;;;;;;;7.20;2.40;;;15.60;99.90;;;;;;4996026;28;20630;-74
2023/10/07 03:28:30;;;;;;;8.00;2.80;;;15.60;99.90;;;;;;5012090;28;21386;-74
2023/10/07 03:30:56;;;;;;;8.23;2.93;;;15.60;99.90;;;;;;5012100;28;20581;-74
2023/10/07 03:33:32;;;;;;;4.77;2.97;;;15.60;99.90;;;;;;5011904;28;20683;-74
2023/10/07 03:36:09;;;;;;;3.40;2.07;;;15.60;99.90;;;;;;5020152;28;20233;-74
2023/10/07 03:38:35;;;;;;;4.20;2.57;;;15.70;99.90;;;;;;5011935;28;20577;-74
2023/10/07 03:41:09;;;;;;;5.57;2.50;;;15.70;99.90;;;;;;5011873;28;20578;-74
2023/10/07 03:43:37;;;;;;;4.57;2.60;;;15.70;99.90;;;;;;4995543;28;20688;-74
2023/10/07 03:46:03;;;;;;;6.10;2.60;;;15.70;99.90;;;;;;4995551;28;20601;-74
2023/10/07 03:48:31;;;;;;;4.80;2.93;;;15.80;99.90;;;;;;5011603;28;20577;-74
2023/10/07 03:51:06;;;;;;;9.00;4.30;;;15.80;99.90;;;;;;5012912;28;20975;-74
2023/10/07 03:53:32;;;;;;;6.10;3.13;;;15.90;99.90;;;;;;5012813;28;20798;-74
2023/10/07 03:56:01;;;;;;;5.50;2.83;;;15.90;99.90;;;;;;5014096;28;20628;-74
2023/10/07 03:58:28;;;;;;;4.20;2.50;;;15.90;99.90;;;;;;5013031;28;20605;-74
2023/10/07 04:00:57;;;;;;;4.30;2.60;;;16.00;99.90;;;;;;5012759;28;20574;-74
2023/10/07 04:03:24;;;;;;;4.43;2.60;;;16.00;99.90;;;;;;5011453;28;20599;-76
2023/10/07 04:05:51;;;;;;;4.50;2.87;;;16.00;99.90;;;;;;5015665;28;20716;-74
2023/10/07 04:08:18;;;;;;;4.50;2.40;;;16.10;99.90;;;;;;5014831;28;20592;-74
2023/10/07 04:10:45;;;;;;;5.30;2.97;;;16.10;99.90;;;;;;4995097;28;20635;-74
2023/10/07 04:13:24;;;;;;;7.03;2.63;;;16.10;99.90;;;;;;5011377;28;21053;-74
2023/10/07 04:15:53;;;;;;;4.90;2.57;;;16.10;99.90;;;;;;5011389;28;20727;-74
2023/10/07 04:18:34;;;;;;;4.10;2.70;;;16.20;99.90;;;;;;5019591;28;21180;-74
2023/10/07 04:21:00;;;;;;;6.97;2.63;;;16.20;99.90;;;;;;5018576;28;20636;-74
2023/10/07 04:23:26;;;;;;;5.70;2.60;;;16.20;99.90;;;;;;5021789;28;20591;-74
2023/10/07 04:26:05;;;;;;;6.83;3.10;;;16.30;99.90;;;;;;5019953;28;21178;-74
2023/10/07 04:28:32;;;;;;;4.13;2.53;;;16.20;99.90;;;;;;5028393;28;20174;-74
2023/10/07 04:30:57;;;;;;;6.63;3.20;;;16.30;99.90;;;;;;5013202;28;20933;-74
2023/10/07 04:34:03;;;;;;;8.13;3.10;;;16.30;99.90;;;;;;5033016;28;20635;-74
2023/10/07 04:39:31;;;;;;;5.23;2.40;;;16.30;99.90;;;;;;5030224;28;20637;-75
2023/10/07 04:42:03;;;;;;;3.80;2.63;;;16.30;99.90;;;;;;5012138;28;20581;-75
2023/10/07 04:45:16;;;;;;;7.07;3.43;;;16.30;99.90;;;;;;5019786;28;20588;-75
2023/10/07 04:47:38;;;;;;;5.80;2.60;;;16.40;99.90;;;;;;5022849;28;20626;-77
2023/10/07 04:52:31;;;;;;;6.43;3.70;;;16.50;99.90;;;;;;5029787;28;20584;-77
2023/10/07 04:55:01;;;;;;;5.10;2.97;;;16.50;99.90;;;;;;5013612;28;20628;-76
2023/10/07 04:57:56;;;;;;;8.30;3.57;;;16.60;99.90;;;;;;5030919;28;20604;-76
2023/10/07 05:03:01;;;;;;;5.27;2.93;;;16.60;99.90;;;;;;5029927;28;20584;-77
2023/10/07 05:05:33;;;;;;;5.80;3.63;;;16.70;99.90;;;;;;5030617;28;20770;-77
2023/10/07 05:08:08;;;;;;;5.57;3.33;;;16.70;99.90;;;;;;5016014;28;21157;-77
2023/10/07 05:10:38;;;;;;;6.67;3.30;;;16.80;99.90;;;;;;5034351;28;20584;-76
2023/10/07 05:13:06;;;;;;;4.77;2.70;;;16.80;99.90;;;;;;5013509;28;20691;-77
2023/10/07 05:15:41;;;;;;;6.50;3.07;;;16.90;99.90;;;;;;5029513;28;20631;-77
2023/10/07 05:18:11;;;;;;;5.30;2.87;;;16.90;99.90;;;;;;5029428;28;21172;-75
2023/10/07 05:20:37;;;;;;;4.77;3.00;;;17.00;99.90;;;;;;5019606;28;20692;-76
2023/10/07 05:23:04;;;;;;;10.33;3.30;;;17.00;99.90;;;;;;5024664;28;20595;-76
2023/10/07 05:25:35;;;;;;;5.97;3.20;;;17.00;99.90;;;;;;5029355;28;21223;-75
2023/10/07 05:28:10;;;;;;;5.50;2.57;;;17.10;99.90;;;;;;5012993;28;20642;-75
2023/10/07 05:30:43;;;;;;;4.47;3.13;;;17.10;99.90;;;;;;5030438;28;21156;-76
2023/10/07 05:33:09;;;;;;;8.70;4.00;;;17.10;99.90;;;;;;5030476;28;20631;-76
2023/10/07 05:35:38;;;;;;;5.00;3.30;;;17.10;99.90;;;;;;5029308;28;20617;-75
2023/10/07 05:38:09;;;;;;;8.90;3.37;;;17.20;99.90;;;;;;5025063;28;20593;-75
2023/10/07 05:40:40;;;;;;;4.50;3.10;;;17.20;99.90;;;;;;5012275;28;20585;-76
2023/10/07 05:43:08;;;;;;;7.30;2.57;;;17.20;99.90;;;;;;5023817;28;20590;-76
2023/10/07 05:45:34;;;;;;;3.90;2.63;;;17.20;99.90;;;;;;5009781;28;21115;-76
2023/10/07 05:48:03;;;;;;;5.00;2.47;;;17.30;99.90;;;;;;5032707;28;21145;-76
2023/10/07 05:50:32;;;;;;;3.73;2.90;;;17.20;99.90;;;;;;5013078;28;21020;-76
2023/10/07 05:52:59;;;;;;;6.77;3.00;;;17.30;99.90;;;;;;5030607;28;21052;-76
2023/10/07 05:55:25;;;;;;;4.67;3.40;;;17.30;99.90;;;;;;5029583;28;20620;-76
2023/10/07 05:57:52;;;;;;;7.03;3.47;;;17.20;99.90;;;;;;5028960;28;21075;-76
2023/10/07 06:00:18;;;;;;;6.00;3.63;;;17.20;99.90;;;;;;5029151;28;20223;-76
2023/10/07 06:02:44;;;;;;;4.13;3.23;;;17.10;99.90;;;;;;5028968;28;20692;-76
2023/10/07 06:05:12;;;;;;;8.77;4.27;;;17.10;99.90;;;;;;5029180;28;21086;-75
2023/10/07 06:07:41;;;;;;;8.17;3.90;;;17.10;99.90;;;;;;5030010;28;20165;-76
2023/10/07 06:10:10;;;;;;;6.37;3.70;;;17.00;99.90;;;;;;5012768;28;20592;-76
2023/10/07 06:12:36;;;;;;;6.47;3.73;;;17.00;99.90;;;;;;5028767;28;20595;-76
2023/10/07 06:15:08;;;;;;;8.67;4.97;;;17.10;99.90;;;;;;5030006;28;20580;-76
2023/10/07 06:17:35;;;;;;;7.53;3.50;;;17.10;99.90;;;;;;5028773;28;20603;-76
2023/10/07 06:20:13;;;;;;;4.20;3.30;;;17.20;99.90;;;;;;5030512;28;20573;-75
2023/10/07 06:22:45;;;;;;;6.30;3.60;;;17.20;99.90;;;;;;5031042;28;20647;-75
2023/10/07 06:25:12;;;;;;;7.30;3.60;;;17.30;99.90;;;;;;5022909;28;20580;-75
2023/10/07 06:27:42;;;;;;;5.73;3.03;;;17.40;99.90;;;;;;5022934;28;20593;-76
2023/10/07 06:30:11;;;;;;;8.70;4.30;;;17.40;99.90;;;;;;5026739;28;20991;-76
2023/10/07 06:32:54;;;;;;;5.40;4.03;;;17.50;99.90;;;;;;5033447;28;21015;-75
2023/10/07 06:35:25;;;;;;;7.10;4.00;;;17.60;99.90;;;;;;5008760;28;20628;-75
2023/10/07 06:37:57;;;;;;;5.00;3.50;;;17.60;99.90;;;;;;5030048;28;20585;-76
2023/10/07 06:40:29;;;;;;;4.70;3.27;;;17.70;99.90;;;;;;5021501;28;20725;-75
2023/10/07 06:42:58;;;;;;;7.80;3.60;;;17.70;99.90;;;;;;5033705;28;20592;-75
2023/10/07 06:45:35;;;;;;;5.57;4.20;;;17.80;99.90;;;;;;5033705;28;20623;-76
2023/10/07 06:48:09;;;;;;;5.23;3.70;;;17.80;99.90;;;;;;5032017;28;20623;-76
2023/10/07 06:50:35;;;;;;;7.70;3.90;;;17.90;99.90;;;;;;5032206;28;21757;-76
2023/10/07 06:53:02;;;;;;;4.90;3.50;;;17.90;99.90;;;;;;5032343;28;20647;-76
2023/10/07 06:55:33;;;;;;;5.23;3.07;;;18.00;99.90;;;;;;5033536;28;20609;-75
2023/10/07 06:58:03;;;;;;;4.83;2.80;;;18.00;99.90;;;;;;5015471;28;20592;-76
2023/10/07 07:00:46;;;;;;;5.90;5.07;;;18.00;99.90;;;;;;5033961;28;21155;-75
2023/10/07 07:03:18;;;;;;;5.83;3.73;;;18.00;99.90;;;;;;5034761;28;20646;-78
2023/10/07 07:06:42;;;;;;;5.40;3.20;;;18.00;99.90;;;;;;5032656;28;20631;-76
2023/10/07 07:12:49;;;;;;;5.70;3.37;;;18.20;99.90;;;;;;5030229;28;20666;-76
2023/10/07 07:15:28;;;;;;;5.50;3.53;;;18.20;99.90;;;;;;5031585;28;20640;-76
2023/10/07 07:18:03;;;;;;;6.70;3.60;;;18.20;99.90;;;;;;5015072;28;20710;-76
2023/10/07 07:23:15;;;;;;;6.97;3.53;;;18.30;99.90;;;;;;5027216;28;20589;-76
2023/10/07 07:25:43;;;;;;;7.03;3.23;;;18.40;99.90;;;;;;5013302;28;21275;-76
2023/10/07 07:28:09;;;;;;;5.47;3.33;;;18.50;99.90;;;;;;5031369;28;20689;-76
2023/10/07 07:30:35;;;;;;;4.10;3.47;;;18.70;99.90;;;;;;5032290;28;20977;-77
2023/10/07 07:33:11;;;;;;;7.40;3.30;;;18.80;99.90;;;;;;5030248;28;20701;-76
2023/10/07 07:35:40;;;;;;;5.20;3.00;;;19.00;99.90;;;;;;5014756;28;20620;-76
2023/10/07 07:40:49;;;;;;;5.77;3.13;;;19.40;99.90;;;;;;5016320;28;20593;-77
2023/10/07 07:43:17;;;;;;;7.30;3.37;;;19.60;99.90;;;;;;5031505;28;21142;-76
2023/10/07 07:45:46;;;;;;;6.30;3.57;;;19.80;99.90;;;;;;5032299;28;20723;-77
2023/10/07 07:48:12;;;;;;;6.67;3.53;;;20.00;99.90;;;;;;5030878;28;20706;-76
2023/10/07 07:50:40;;;;;;;6.63;3.83;;;20.20;99.90;;;;;;5022011;28;20736;-77
2023/10/07 07:53:07;;;;;;;4.43;2.30;;;20.30;99.90;;;;;;5018254;28;20659;-76
2023/10/07 07:55:45;;;;;;;4.33;2.80;;;20.40;99.90;;;;;;5006160;28;20712;-76
2023/10/07 07:58:12;;;;;;;3.37;2.00;;;20.50;99.90;;;;;;5025314;28;20649;-76
2023/10/07 08:00:58;;;;;;;4.57;2.00;;;20.50;99.90;;;;;;5028158;28;20663;-76
2023/10/07 08:03:25;;;;;;;5.50;2.10;;;20.50;99.90;;;;;;5030602;28;20181;-76
2023/10/07 08:05:50;;;;;;;5.60;2.17;;;20.60;99.90;;;;;;5030514;28;21197;-76
2023/10/07 08:08:25;;;;;;;3.50;1.90;;;20.60;99.90;;;;;;5023593;28;20576;-76
2023/10/07 08:10:54;;;;;;;6.17;2.37;;;20.60;99.90;;;;;;5014144;28;20192;-76
2023/10/07 08:13:29;;;;;;;4.73;1.80;;;20.70;99.90;;;;;;5015061;28;21097;-76
2023/10/07 08:15:56;;;;;;;6.00;2.37;;;20.70;99.90;;;;;;5034831;28;21013;-75
2023/10/07 08:18:28;;;;;;;3.70;1.97;;;20.70;99.90;;;;;;5013914;28;20577;-76
2023/10/07 08:21:07;;;;;;;4.40;1.87;;;20.80;99.90;;;;;;5030558;28;20585;-76
2023/10/07 08:23:36;;;;;;;5.73;2.60;;;20.80;99.90;;;;;;5013804;28;20735;-76
2023/10/07 08:26:09;;;;;;;5.70;1.87;;;20.90;99.90;;;;;;5016162;28;20636;-76
2023/10/07 08:28:46;;;;;;;4.40;2.40;;;20.90;99.90;;;;;;5030042;28;20581;-76
2023/10/07 08:31:14;;;;;;;5.03;1.83;;;20.90;99.90;;;;;;4999644;28;20581;-76
2023/10/07 08:33:41;;;;;;;3.63;2.30;;;21.00;99.90;;;;;;5030127;28;20988;-76
2023/10/07 08:36:07;;;;;;;4.03;1.63;;;21.10;99.90;;;;;;5016109;28;20604;-77
2023/10/07 08:38:50;;;;;;;6.03;2.80;;;21.10;99.90;;;;;;5031352;28;20623;-77
2023/10/07 08:41:16;;;;;;;8.57;3.73;;;21.10;99.90;;;;;;5031521;28;20584;-77
2023/10/07 08:43:45;;;;;;;5.10;3.23;;;21.10;99.90;;;;;;5029855;28;20584;-75
2023/10/07 08:46:20;;;;;;;5.50;2.47;;;21.20;99.90;;;;;;5031589;28;20863;-75
2023/10/07 08:48:55;;;;;;;6.63;1.60;;;21.30;99.90;;;;;;5030153;28;20596;-77
2023/10/07 08:51:23;;;;;;;4.17;1.97;;;21.50;99.90;;;;;;5034882;28;20579;-75
2023/10/07 08:53:50;;;;;;;4.50;1.93;;;22.00;99.90;;;;;;5032510;28;20631;-77
2023/10/07 08:56:19;;;;;;;3.50;1.47;;;22.60;99.90;;;;;;5030274;28;20622;-75
2023/10/07 08:58:49;;;;;;;3.63;1.53;;;23.20;99.90;;;;;;5004912;28;20644;-75
2023/10/07 09:01:18;;;;;;;4.23;1.83;;;23.80;99.90;;;;;;5031308;28;20649;-75
2023/10/07 09:03:49;;;;;;;4.07;1.63;;;24.30;99.90;;;;;;5031432;28;20588;-76
2023/10/07 09:06:16;;;;;;;4.13;1.63;;;24.50;99.90;;;;;;5030000;28;20628;-74
2023/10/07 09:08:43;;;;;;;5.80;2.13;;;24.70;99.90;;;;;;5029507;28;20628;-73
2023/10/07 09:11:13;;;;;;;4.20;1.70;;;24.80;99.90;;;;;;5029508;28;20584;-73
2023/10/07 09:13:39;;;;;;;4.47;1.73;;;24.80;99.90;;;;;;5028997;28;20628;-73
2023/10/07 09:16:07;;;;;;;4.30;2.00;;;24.90;99.90;;;;;;5012017;28;20651;-73
2023/10/07 09:18:41;;;;;;;6.37;1.70;;;24.90;99.90;;;;;;5028624;28;21145;-73
2023/10/07 09:21:19;;;;;;;2.53;1.33;;;24.90;99.90;;;;;;5006462;28;21125;-73
2023/10/07 09:23:59;;;;;;;3.40;1.27;;;25.10;99.90;;;;;;5022020;28;20580;-73
2023/10/07 09:26:33;;;;;;;3.33;1.70;;;25.50;99.90;;;;;;5022257;28;20716;-73
2023/10/07 09:29:19;;;;;;;5.07;1.70;;;25.90;99.90;;;;;;5024751;28;20580;-73
2023/10/07 09:31:59;;;;;;;2.30;1.57;;;26.60;99.90;;;;;;5013289;28;20581;-73
2023/10/07 09:37:17;;;;;;;6.20;2.17;;;28.30;99.90;;;;;;5029600;28;20623;-74
2023/10/07 09:39:44;;;;;;;3.80;1.50;;;29.10;99.90;;;;;;5028738;28;20589;-73
2023/10/07 09:42:35;;;;;;;3.83;1.73;;;29.80;99.90;;;;;;5014045;28;20599;-74
2023/10/07 09:47:38;;;;;;;4.20;1.80;;;31.00;99.90;;;;;;5022912;28;20594;-73
2023/10/07 09:50:25;;;;;;;5.40;1.70;;;31.60;99.90;;;;;;5022229;28;20598;-73
2023/10/07 09:53:27;;;;;;;3.47;1.70;;;32.10;99.90;;;;;;5028959;28;20592;-74
2023/10/07 09:56:11;;;;;;;5.67;1.43;;;32.70;99.90;;;;;;5014780;28;20608;-74
2023/10/07 09:58:52;;;;;;;3.40;1.40;;;33.20;99.90;;;;;;5017299;28;20589;-74
2023/10/07 10:01:40;;;;;;;2.83;1.77;;;33.60;99.70;;;;;;5020619;28;20595;-74
2023/10/07 10:04:24;;;;;;;4.80;1.50;;;33.90;98.90;;;;;;5000542;28;20616;-74
2023/10/07 10:07:05;;;;;;;3.00;1.60;;;34.30;97.70;;;;;;5033213;28;20697;-74
2023/10/07 10:09:45;;;;;;;3.27;1.40;;;34.50;94.90;;;;;;5021608;28;20584;-73
2023/10/07 10:12:27;;;;;;;3.77;1.87;;;34.60;95.20;;;;;;5018535;28;20603;-72
2023/10/07 10:14:56;;;;;;;4.73;1.77;;;34.70;94.40;;;;;;5010299;28;20719;-73
2023/10/07 10:17:39;;;;;;;2.87;1.50;;;34.70;93.30;;;;;;5021762;28;21191;-73
2023/10/07 10:20:16;;;;;;;3.63;1.40;;;34.60;92.20;;;;;;5020594;28;20977;-73
2023/10/07 10:22:52;;;;;;;3.80;1.17;;;34.50;90.80;;;;;;5026235;28;20618;-73
2023/10/07 10:25:25;;;;;;;3.33;1.37;;;34.20;89.30;;;;;;5016728;28;20611;-73
2023/10/07 10:28:01;;;;;;;2.43;1.30;;;33.80;87.50;;;;;;5018564;28;20660;-73
2023/10/07 10:30:28;;;;;;;2.53;1.30;;;33.40;85.80;;;;;;4998526;28;21137;-73
2023/10/07 10:32:58;;;;;;;3.03;1.50;;;33.00;85.40;;;;;;5017152;28;20675;-74
2023/10/07 10:35:25;;;;;;;3.40;2.00;;;32.80;85.90;;;;;;5026824;28;20619;-73
2023/10/07 10:37:55;;;;;;;3.83;2.70;;;32.70;86.60;;;;;;5031984;28;21153;-74
2023/10/07 10:40:21;;;;;;;2.63;1.53;;;32.60;85.20;;;;;;5028542;28;21235;-73
2023/10/07 10:42:48;;;;;;;2.40;1.40;;;32.60;86.00;;;;;;5023914;28;20619;-73
2023/10/07 10:45:21;;;;;;;3.40;1.57;;;32.60;85.90;;;;;;5032283;28;20955;-74
2023/10/07 10:47:54;;;;;;;3.30;1.30;;;32.60;84.90;;;;;;5031956;28;20584;-73
2023/10/07 10:50:29;;;;;;;2.30;1.20;;;32.70;84.40;;;;;;5032274;28;20598;-74
2023/10/07 10:52:56;;;;;;;2.57;1.10;;;32.70;83.50;;;;;;5023987;28;20663;-74
2023/10/07 10:55:24;;;;;;;4.03;1.30;;;32.80;84.40;;;;;;5017177;28;20620;-73
2023/10/07 10:57:53;;;;;;;2.47;1.00;;;32.90;83.40;;;;;;5016513;28;20581;-74
2023/10/07 11:00:20;;;;;;;2.10;1.40;;;33.00;82.40;;;;;;5017378;28;20645;-73
2023/10/07 11:02:46;;;;;;;7.50;1.57;;;33.00;81.70;;;;;;5032085;28;20941;-74
2023/10/07 11:05:15;;;;;;;2.27;1.10;;;33.00;80.80;;;;;;5015387;28;20584;-73
2023/10/07 11:07:50;;;;;;;2.57;1.07;;;33.10;80.80;;;;;;5014879;28;20581;-73
2023/10/07 11:10:20;;;;;;;3.53;1.53;;;33.20;79.80;;;;;;5033228;28;20591;-73
2023/10/07 11:12:52;;;;;;;2.70;1.20;;;33.10;79.70;;;;;;5032999;28;20622;-73
2023/10/07 11:15:24;;;;;;;3.97;1.30;;;33.10;77.50;;;;;;5032467;28;20695;-73
2023/10/07 11:17:53;;;;;;;1.87;1.10;;;33.00;77.50;;;;;;5030342;28;20599;-73
2023/10/07 11:20:22;;;;;;;2.83;1.43;;;33.00;76.90;;;;;;5035455;28;21138;-73
2023/10/07 11:22:50;;;;;;;3.47;1.20;;;33.00;77.20;;;;;;5023997;28;20585;-73
2023/10/07 11:25:15;;;;;;;2.70;1.33;;;33.00;76.40;;;;;;5024330;28;20600;-72
2023/10/07 11:27:46;;;;;;;4.73;1.10;;;33.00;76.10;;;;;;5031307;28;20591;-72
2023/10/07 11:30:14;;;;;;;2.47;1.00;;;33.10;75.10;;;;;;5031615;28;20521;-72
2023/10/07 11:32:43;;;;;;;3.53;1.20;;;33.00;75.00;;;;;;5015561;28;20596;-72
2023/10/07 11:35:19;;;;;;;2.80;1.30;;;33.00;74.20;;;;;;5031279;28;20628;-72
2023/10/07 11:37:49;;;;;;;3.53;1.53;;;32.90;71.80;;;;;;5031103;28;20587;-72
2023/10/07 11:40:18;;;;;;;2.90;1.50;;;32.80;71.90;;;;;;5031337;28;20595;-73
2023/10/07 11:42:44;;;;;;;2.57;1.10;;;32.70;71.50;;;;;;5031360;28;20588;-73
2023/10/07 11:45:11;;;;;;;3.77;1.60;;;32.50;70.80;;;;;;5031385;28;20685;-73
2023/10/07 11:47:37;;;;;;;2.47;1.33;;;32.30;70.40;;;;;;5022911;28;20179;-73
2023/10/07 11:50:07;;;;;;;3.63;1.47;;;32.10;69.90;;;;;;5013249;28;20646;-73
2023/10/07 11:52:33;;;;;;;2.33;1.20;;;32.00;69.90;;;;;;5012224;28;20179;-73
2023/10/07 11:55:00;;;;;;;4.10;1.70;;;31.90;69.80;;;;;;5014571;28;21240;-72
2023/10/07 11:57:27;;;;;;;3.27;1.30;;;31.70;68.40;;;;;;5015509;28;20672;-73
2023/10/07 11:59:53;;;;;;;3.90;2.10;;;31.40;68.10;;;;;;4995937;28;21145;-72
2023/10/07 12:02:21;;;;;;;5.27;1.40;;;31.30;68.80;;;;;;5029146;28;20595;-73
2023/10/07 12:04:48;;;;;;;4.40;1.70;;;31.10;69.60;;;;;;5018916;28;20198;-73
2023/10/07 12:07:17;;;;;;;4.07;1.67;;;31.00;69.10;;;;;;5026891;28;20666;-73
2023/10/07 12:09:47;;;;;;;4.10;1.47;;;30.80;69.30;;;;;;5020148;28;20701;-73
2023/10/07 12:12:14;;;;;;;3.00;1.33;;;30.80;69.70;;;;;;5031883;28;20608;-73
2023/10/07 12:14:40;;;;;;;2.43;1.20;;;30.70;69.90;;;;;;5030379;28;20672;-73
2023/10/07 12:17:07;;;;;;;6.27;1.70;;;30.70;70.10;;;;;;5031341;28;20704;-73
2023/10/07 12:19:36;;;;;;;3.33;1.50;;;30.60;70.10;;;;;;5029857;28;20582;-73
2023/10/07 12:22:05;;;;;;;2.80;1.70;;;30.50;70.00;;;;;;5031440;28;20577;-73
2023/10/07 12:24:32;;;;;;;3.30;1.13;;;30.40;69.60;;;;;;5030067;28;20592;-73
2023/10/07 12:26:59;;;;;;;3.07;1.47;;;30.30;69.50;;;;;;5003951;28;20625;-73
2023/10/07 12:29:26;;;;;;;2.63;1.43;;;30.10;69.20;;;;;;5016079;28;20596;-75
2023/10/07 12:31:52;;;;;;;4.63;1.67;;;29.90;69.10;;;;;;5017227;28;20589;-75
2023/10/07 12:34:18;;;;;;;4.37;2.30;;;29.70;68.80;;;;;;5030926;28;20714;-74
2023/10/07 12:36:44;;;;;;;4.50;3.30;;;29.50;68.70;;;;;;5029858;28;20616;-74
2023/10/07 12:39:11;;;;;;;6.13;3.20;;;29.20;68.40;;;;;;5013870;28;20592;-73
2023/10/07 12:41:43;;;;;;;4.43;2.67;;;28.90;68.20;;;;;;5013710;28;20936;-73
2023/10/07 12:44:09;;;;;;;3.67;1.40;;;28.60;68.30;;;;;;5030234;28;20603;-74
2023/10/07 12:46:37;;;;;;;3.07;1.30;;;28.30;68.40;;;;;;5030022;28;20736;-74
2023/10/07 12:49:05;;;;;;;3.43;1.20;;;28.00;68.80;;;;;;5030092;28;20625;-74
2023/10/07 12:51:31;;;;;;;2.87;1.10;;;27.70;69.30;;;;;;5024249;28;20596;-74
2023/10/07 12:53:59;;;;;;;5.80;1.20;;;27.50;70.20;;;;;;5029240;28;21233;-74
2023/10/07 12:56:26;;;;;;;4.77;1.30;;;27.30;70.70;;;;;;5017346;28;20713;-74
2023/10/07 12:58:53;;;;;;;4.23;2.20;;;27.20;70.90;;;;;;5007185;28;20601;-74
2023/10/07 13:02:09;;;;;;;3.47;2.17;;;27.00;71.40;;;;;;5036226;28;20674;-75
2023/10/07 13:04:35;;;;;;;5.97;2.63;;;26.80;72.20;;;;;;5031195;28;20580;-74
2023/10/07 13:07:14;;;;;;;7.20;5.30;;;26.70;71.80;;;;;;5031010;28;20616;-73
2023/10/07 13:09:46;;;;;;;7.07;2.90;;;26.50;72.50;;;;;;5033106;28;20181;-73
2023/10/07 13:12:13;;;;;;;5.50;2.40;;;26.40;72.70;;;;;;5013402;28;20588;-72
2023/10/07 13:14:42;;;;;;;4.30;2.60;;;26.30;72.80;;;;;;4996747;28;20697;-73
2023/10/07 13:17:13;;;;;;;4.37;1.80;;;26.20;72.90;;;;;;5028593;28;21216;-73
2023/10/07 13:19:43;;;;;;;3.50;1.37;;;26.10;73.40;;;;;;5030104;28;20997;-73
2023/10/07 13:22:09;;;;;;;3.50;1.70;;;26.00;73.70;;;;;;5029129;28;20584;-74
2023/10/07 13:24:35;;;;;;;6.30;2.27;;;26.00;73.90;;;;;;5030256;28;21201;-74
2023/10/07 13:27:04;;;;;;;3.30;1.57;;;25.90;74.40;;;;;;5028651;28;20201;-74
2023/10/07 13:29:34;;;;;;;5.33;1.90;;;25.90;74.60;;;;;;5028234;28;20408;-74
2023/10/07 13:32:03;;;;;;;4.50;1.70;;;25.80;75.10;;;;;;5028003;28;21146;-74
2023/10/07 13:34:30;;;;;;;3.20;1.20;;;25.80;75.30;;;;;;5029904;28;20693;-74
2023/10/07 13:36:56;;;;;;;3.20;1.70;;;25.70;75.50;;;;;;5028227;28;20979;-74
2023/10/07 13:39:24;;;;;;;8.30;2.30;;;25.70;75.70;;;;;;5030196;28;20580;-74
2023/10/07 13:41:52;;;;;;;5.47;2.07;;;25.60;76.10;;;;;;5030790;28;20533;-75
2023/10/07 13:44:22;;;;;;;5.50;2.53;;;25.60;76.20;;;;;;5027111;28;20589;-73
2023/10/07 13:46:49;;;;;;;4.93;2.33;;;25.50;76.70;;;;;;5020803;28;20623;-74
2023/10/07 13:49:15;;;;;;;6.57;1.60;;;25.50;76.90;;;;;;5019611;28;20584;-73
2023/10/07 13:51:43;;;;;;;4.33;1.93;;;25.50;77.30;;;;;;5028672;28;20952;-74
2023/10/07 13:54:23;;;;;;;4.57;2.20;;;25.40;77.50;;;;;;5019156;28;21068;-74